Gainesville, AL (35464)

6:18 PM CDT on July 29, 2016 (GMT -0500)
Cedar Shoals | | Change Station

Elev 177 ft 33.07 °N, 88.24 °W | Updated 3 minutes ago

Clear
Clear
86.3 °F
Feels Like 95 °F
N
7.0
Wind Variable Wind from North
Gusts 11.0 mph

Today
High -- | Low -- °F
--% Chance of Precip.
Yesterday
High -- | Low -- °F
Precip. -- in
Pressure 29.99 in
Visibility 10.0 miles
Clouds Clear
Heat Index 95 °F
Dew Point 74 °F
Humidity 68%
Rainfall in
Snow Depth Not available.
6:04 AM 7:53 PM
Waning Crescent, 18% visible
METAR KNMM 292256Z AUTO 27008KT 10SM CLR 33/18 A2998 RMK AO2 SLP156 T03280183
Pressure 29.99 in
Visibility 10.0 miles
Clouds Clear
Heat Index 95 °F
Dew Point 74 °F
Humidity 68%
Rainfall in
Snow Depth Not available.
6:04 AM 7:53 PM
Waning Crescent, 18% visible
METAR KNMM 292256Z AUTO 27008KT 10SM CLR 33/18 A2998 RMK AO2 SLP156 T03280183

10-Day Weather Forecast

Almanac

Astronomy

Jul. 29, 2016 Rise Set
Actual Time
Civil Twilight
Nautical Twilight
Astronomical Twilight
Moon
Length of Visible Light
Length of Day
Tomorrow will be .
, % of the Moon is Illuminated

Today's Extremes

State Highs State Lows

Community

WunderPhotos

Upload Photos

1,928,441 photos uploaded!

WunderBlog® & News

Nearby

Air Quality

  Air Quality AQ Index Pollutant
Not available.

Snow Depth

Station Depth Elevation

Earthquake Activity

City Distance Mag. Time & Date
Minimum magnitude displayed is 2.5.

Coastal Water Temperatures

Place Temperature

Stations

Nearby Weather Stations

Station Location Temp. Windchill Dew Point Humidity Wind Precip. Elev Updated Type
                   

Watches & Warnings

There are currently no watches in effect.